Time;durP1;ratioP1;P1;durP2;ratioP2;P2;SDS_P1;SDS_P2;PMS_P1;PMS_P2;Temp;Humidity;BMP_temperature;BMP_pressure;BME280_temperature;BME280_humidity;BME280_pressure;Samples;Min_cycle;Max_cycle;Signal;HPM_P1;HPM_P2
2022/03/27 00:00:18;;;;;;;6.55;2.60;;;7.30;99.90;;;;;;5092878;28;20058;-75
2022/03/27 00:02:44;;;;;;;5.88;2.90;;;7.30;99.90;;;;;;5093446;28;20047;-75
2022/03/27 00:05:12;;;;;;;6.22;3.20;;;7.60;99.90;;;;;;5093456;28;20464;-76
2022/03/27 00:07:38;;;;;;;6.80;2.63;;;7.40;99.90;;;;;;5092440;28;20123;-75
2022/03/27 00:10:05;;;;;;;5.97;2.70;;;7.60;99.90;;;;;;5092051;28;20547;-75
2022/03/27 00:12:31;;;;;;;5.88;2.60;;;7.30;99.90;;;;;;5093245;28;20040;-76
2022/03/27 00:14:57;;;;;;;4.85;2.40;;;7.30;99.90;;;;;;5093353;28;20044;-76
2022/03/27 00:17:23;;;;;;;5.00;2.42;;;7.60;99.90;;;;;;5092141;28;20454;-75
2022/03/27 00:19:49;;;;;;;7.30;3.05;;;7.70;99.90;;;;;;5093345;28;20048;-75
2022/03/27 00:22:15;;;;;;;7.20;3.00;;;7.70;99.90;;;;;;5094069;28;20122;-75
2022/03/27 00:24:41;;;;;;;6.40;2.58;;;7.60;99.90;;;;;;5095102;28;20130;-74
2022/03/27 00:27:07;;;;;;;4.80;2.47;;;7.50;99.90;;;;;;5097124;28;20086;-74
2022/03/27 00:29:32;;;;;;;3.72;2.05;;;7.30;99.90;;;;;;5097595;28;20044;-75
2022/03/27 00:31:58;;;;;;;4.05;1.95;;;7.50;99.90;;;;;;5096066;28;20472;-76
2022/03/27 00:34:24;;;;;;;6.43;2.10;;;7.50;99.90;;;;;;5079124;28;20123;-75
2022/03/27 00:36:49;;;;;;;6.05;2.63;;;7.20;99.90;;;;;;5095881;28;20036;-75
2022/03/27 00:39:15;;;;;;;5.70;2.10;;;7.30;99.90;;;;;;5079040;28;20040;-74
2022/03/27 00:41:43;;;;;;;4.78;1.95;;;7.50;99.90;;;;;;5097660;28;20036;-75
2022/03/27 00:44:09;;;;;;;4.38;2.20;;;7.50;99.90;;;;;;5095543;28;20131;-74
2022/03/27 00:46:35;;;;;;;4.75;1.90;;;7.20;99.90;;;;;;5096665;28;20384;-75
2022/03/27 00:49:00;;;;;;;6.25;2.20;;;7.90;99.90;;;;;;5096825;28;20042;-75
2022/03/27 00:51:26;;;;;;;5.15;2.17;;;7.20;99.90;;;;;;5096669;28;20040;-75
2022/03/27 00:53:52;;;;;;;5.00;2.33;;;7.00;99.90;;;;;;5096699;28;20132;-75
2022/03/27 00:56:18;;;;;;;6.20;2.08;;;7.50;99.90;;;;;;5096635;28;20160;-75
2022/03/27 00:58:43;;;;;;;3.88;2.03;;;7.20;99.90;;;;;;5095191;28;20056;-75
2022/03/27 01:01:24;;;;;;;3.85;1.83;;;7.20;99.90;;;;;;5096831;28;20082;-75
2022/03/27 01:03:54;;;;;;;3.42;2.00;;;7.50;99.90;;;;;;5095968;28;20048;-75
2022/03/27 01:06:32;;;;;;;5.47;2.00;;;7.20;99.90;;;;;;5096161;28;20504;-75
2022/03/27 01:11:44;;;;;;;5.03;2.35;;;7.10;99.90;;;;;;5096024;28;20502;-76
2022/03/27 01:14:10;;;;;;;4.93;1.83;;;7.20;99.90;;;;;;5096829;28;20130;-75
2022/03/27 01:16:55;;;;;;;4.75;1.98;;;7.10;99.90;;;;;;5094991;28;20046;-75
2022/03/27 01:19:21;;;;;;;4.60;2.17;;;7.40;99.90;;;;;;5096259;28;20476;-75
2022/03/27 01:21:47;;;;;;;4.03;2.13;;;7.40;99.90;;;;;;5095162;28;20108;-75
2022/03/27 01:24:16;;;;;;;4.03;2.15;;;7.40;99.90;;;;;;5096080;28;20095;-75
2022/03/27 01:26:43;;;;;;;4.28;2.22;;;7.10;99.90;;;;;;5095651;28;20587;-75
2022/03/27 01:29:08;;;;;;;5.85;2.70;;;7.20;99.90;;;;;;5096802;28;20106;-75
2022/03/27 01:31:35;;;;;;;4.65;2.45;;;7.20;99.90;;;;;;5077964;28;20464;-75
2022/03/27 01:34:05;;;;;;;6.80;2.78;;;7.10;99.90;;;;;;5095881;28;20475;-75
2022/03/27 01:36:35;;;;;;;5.63;2.22;;;7.10;99.90;;;;;;5095253;28;20399;-75
2022/03/27 01:39:09;;;;;;;4.45;2.58;;;7.30;99.90;;;;;;5095095;28;20062;-76
2022/03/27 01:41:37;;;;;;;4.30;2.60;;;7.20;99.90;;;;;;5096325;28;20048;-76
2022/03/27 01:44:04;;;;;;;5.70;2.75;;;7.00;99.90;;;;;;5095679;28;20051;-76
2022/03/27 01:46:32;;;;;;;5.28;2.90;;;7.10;99.90;;;;;;5096264;28;20044;-75
2022/03/27 01:49:02;;;;;;;4.65;2.72;;;6.90;99.90;;;;;;5095630;28;20047;-76
2022/03/27 01:51:29;;;;;;;6.05;2.67;;;7.30;99.90;;;;;;5094495;28;20044;-75
2022/03/27 01:53:55;;;;;;;4.68;2.80;;;7.00;99.90;;;;;;5094559;28;20036;-75
2022/03/27 01:56:21;;;;;;;5.72;2.72;;;7.20;99.90;;;;;;5095492;28;20123;-75
2022/03/27 01:58:47;;;;;;;6.18;2.70;;;7.20;99.90;;;;;;5077169;28;20056;-75
2022/03/27 02:01:13;;;;;;;7.47;2.75;;;6.90;99.90;;;;;;5095362;28;20185;-75
2022/03/27 02:03:39;;;;;;;6.53;2.67;;;6.90;99.90;;;;;;5094137;28;20090;-75
2022/03/27 02:06:05;;;;;;;5.93;2.45;;;7.10;99.90;;;;;;5096047;28;20036;-75
2022/03/27 02:08:34;;;;;;;5.30;2.90;;;7.00;99.90;;;;;;5096053;28;20075;-75
2022/03/27 02:11:03;;;;;;;4.65;2.30;;;7.10;99.90;;;;;;5095800;28;20074;-75
2022/03/27 02:13:29;;;;;;;4.75;1.92;;;6.70;99.90;;;;;;5094348;28;20442;-74
2022/03/27 02:15:57;;;;;;;3.95;2.10;;;7.10;99.90;;;;;;5095966;28;20051;-75
2022/03/27 02:18:26;;;;;;;8.30;2.63;;;6.90;99.90;;;;;;5095056;28;20136;-75
2022/03/27 02:20:52;;;;;;;5.00;2.30;;;6.70;99.90;;;;;;5095516;28;20401;-75
2022/03/27 02:23:18;;;;;;;5.25;2.85;;;6.90;99.90;;;;;;5095001;28;20369;-75
2022/03/27 02:25:44;;;;;;;6.82;2.63;;;6.80;99.90;;;;;;5093773;28;20048;-74
2022/03/27 02:28:09;;;;;;;7.32;2.72;;;6.80;99.90;;;;;;5094910;28;20047;-74
2022/03/27 02:30:35;;;;;;;3.60;1.73;;;6.60;99.90;;;;;;5094666;28;20044;-74
2022/03/27 02:33:01;;;;;;;4.80;2.10;;;6.80;99.90;;;;;;5094416;28;20040;-74
2022/03/27 02:35:27;;;;;;;5.30;2.60;;;6.80;99.90;;;;;;5093263;28;20039;-75
2022/03/27 02:37:53;;;;;;;6.88;2.45;;;6.80;99.90;;;;;;5094804;28;20036;-74
2022/03/27 02:40:19;;;;;;;4.53;2.10;;;7.00;99.90;;;;;;5093630;28;20040;-75
2022/03/27 02:42:45;;;;;;;6.38;2.20;;;6.80;99.90;;;;;;5094645;28;20369;-74
2022/03/27 02:45:11;;;;;;;4.85;2.30;;;6.60;99.90;;;;;;5095142;28;20480;-74
2022/03/27 02:47:37;;;;;;;5.10;2.20;;;6.60;99.90;;;;;;5094200;28;20051;-74
2022/03/27 02:50:05;;;;;;;4.82;2.17;;;6.70;99.90;;;;;;5094462;28;20048;-74
2022/03/27 02:52:32;;;;;;;5.07;2.78;;;6.60;99.90;;;;;;5093219;28;20137;-74
2022/03/27 02:54:58;;;;;;;6.90;3.10;;;6.40;99.90;;;;;;5093690;28;20472;-74
2022/03/27 02:57:24;;;;;;;4.82;2.90;;;6.50;99.90;;;;;;5076471;28;20090;-74
2022/03/27 02:59:53;;;;;;;4.63;2.42;;;6.50;99.90;;;;;;5094830;28;20060;-74
2022/03/27 03:02:20;;;;;;;4.55;2.08;;;6.60;99.90;;;;;;5094247;28;20044;-74
2022/03/27 03:04:46;;;;;;;4.00;2.08;;;6.50;99.90;;;;;;5094213;28;20048;-74
2022/03/27 03:07:12;;;;;;;5.40;2.53;;;6.50;99.90;;;;;;5093253;28;20048;-74
2022/03/27 03:09:38;;;;;;;3.90;1.75;;;6.20;99.90;;;;;;5093095;28;20044;-74
2022/03/27 03:12:05;;;;;;;4.40;1.80;;;6.70;99.90;;;;;;5094044;28;20047;-74
2022/03/27 03:14:31;;;;;;;3.78;1.73;;;6.10;99.90;;;;;;5094028;28;20043;-74
2022/03/27 03:16:57;;;;;;;4.32;1.58;;;6.20;99.90;;;;;;5094016;28;20503;-74
2022/03/27 03:19:24;;;;;;;3.45;1.80;;;6.10;99.90;;;;;;5093990;28;20048;-74
2022/03/27 03:21:50;;;;;;;3.83;1.70;;;6.10;99.90;;;;;;5092950;28;20048;-75
2022/03/27 03:24:15;;;;;;;3.72;1.60;;;6.10;99.90;;;;;;5093903;28;20044;-74
2022/03/27 03:26:41;;;;;;;3.22;1.52;;;6.10;99.90;;;;;;5093565;28;20074;-75
2022/03/27 03:29:07;;;;;;;4.00;2.30;;;6.50;99.90;;;;;;5093867;28;20044;-74
2022/03/27 03:31:33;;;;;;;5.15;2.00;;;6.30;99.90;;;;;;5093743;28;20036;-74
2022/03/27 03:33:59;;;;;;;4.78;1.80;;;6.00;99.90;;;;;;5093810;28;20040;-74
2022/03/27 03:36:24;;;;;;;3.40;1.60;;;6.90;99.90;;;;;;5092659;28;20402;-74
2022/03/27 03:38:51;;;;;;;3.25;1.90;;;6.40;99.90;;;;;;5093806;28;20043;-74
2022/03/27 03:41:17;;;;;;;5.30;1.42;;;6.00;99.90;;;;;;5093680;28;20044;-74
2022/03/27 03:43:43;;;;;;;4.88;1.58;;;6.30;99.90;;;;;;5093764;28;20099;-74
2022/03/27 03:46:09;;;;;;;4.68;1.20;;;6.40;99.90;;;;;;5092446;28;20128;-74
2022/03/27 03:48:35;;;;;;;5.13;1.50;;;6.00;99.90;;;;;;5076665;28;20052;-74
2022/03/27 03:51:01;;;;;;;3.75;1.35;;;6.30;99.90;;;;;;5075518;28;20087;-74
2022/03/27 03:53:27;;;;;;;5.07;1.60;;;6.40;99.90;;;;;;5092553;28;20046;-74
2022/03/27 03:55:53;;;;;;;2.50;1.27;;;6.30;99.90;;;;;;5093560;28;20044;-74
2022/03/27 03:58:19;;;;;;;4.68;1.58;;;6.00;99.90;;;;;;5093923;28;20067;-74
2022/03/27 04:00:46;;;;;;;6.90;1.52;;;6.40;99.90;;;;;;5096250;28;20054;-74
2022/03/27 04:03:13;;;;;;;3.35;1.42;;;6.10;99.90;;;;;;5096499;28;20036;-74
2022/03/27 04:05:39;;;;;;;3.83;1.45;;;6.30;99.90;;;;;;5096455;28;20048;-74
2022/03/27 04:08:05;;;;;;;5.35;1.60;;;6.30;99.90;;;;;;5096443;28;20047;-74
2022/03/27 04:10:31;;;;;;;4.07;1.70;;;6.20;99.90;;;;;;5097993;28;20048;-74
2022/03/27 04:12:56;;;;;;;5.38;1.80;;;6.70;99.90;;;;;;5097445;28;20040;-74
2022/03/27 04:15:22;;;;;;;4.93;1.50;;;6.10;99.90;;;;;;5097472;28;20044;-74
2022/03/27 04:17:49;;;;;;;5.80;1.88;;;6.20;99.90;;;;;;5097408;28;20075;-74
2022/03/27 04:20:15;;;;;;;7.85;2.05;;;6.00;99.90;;;;;;5096165;28;20052;-75
2022/03/27 04:22:42;;;;;;;3.50;1.55;;;6.20;99.90;;;;;;5096646;28;20048;-74
2022/03/27 04:25:09;;;;;;;5.35;1.98;;;6.50;99.90;;;;;;5097295;28;20048;-74
2022/03/27 04:27:35;;;;;;;5.88;1.80;;;6.30;99.90;;;;;;5096110;28;20044;-74
2022/03/27 04:30:04;;;;;;;5.78;1.55;;;6.00;99.90;;;;;;5097515;28;20495;-74
2022/03/27 04:32:30;;;;;;;8.90;1.73;;;6.10;99.90;;;;;;5096114;28;20549;-74
2022/03/27 04:34:56;;;;;;;8.18;1.98;;;6.10;99.90;;;;;;5096132;28;20122;-74
2022/03/27 04:37:22;;;;;;;8.93;1.92;;;6.00;99.90;;;;;;5096886;28;20048;-74
2022/03/27 04:39:48;;;;;;;6.50;1.70;;;6.30;99.90;;;;;;5096708;28;20483;-74
2022/03/27 04:42:13;;;;;;;7.32;1.85;;;6.10;99.90;;;;;;5096954;28;20040;-74
2022/03/27 04:44:39;;;;;;;7.82;1.60;;;6.10;99.90;;;;;;5097169;28;20127;-73
2022/03/27 04:47:06;;;;;;;6.07;1.40;;;6.10;99.90;;;;;;5096802;28;20051;-74
2022/03/27 04:49:32;;;;;;;6.00;1.98;;;6.10;99.90;;;;;;5096791;28;20400;-74
2022/03/27 04:51:58;;;;;;;8.90;1.80;;;6.10;99.90;;;;;;5096614;28;20036;-73
2022/03/27 04:54:24;;;;;;;4.07;2.05;;;6.30;99.90;;;;;;5096939;28;20044;-74
2022/03/27 04:56:50;;;;;;;5.10;1.75;;;6.40;99.90;;;;;;5096660;28;20094;-74
2022/03/27 04:59:16;;;;;;;7.57;1.90;;;6.70;99.90;;;;;;5096672;28;20442;-74
2022/03/27 05:01:42;;;;;;;9.18;2.20;;;6.10;99.90;;;;;;5096474;28;20064;-73
2022/03/27 05:04:10;;;;;;;6.10;2.13;;;6.10;99.90;;;;;;5078369;28;20051;-74
2022/03/27 05:06:36;;;;;;;6.65;1.92;;;6.10;99.90;;;;;;5096346;28;20059;-74
2022/03/27 05:09:01;;;;;;;6.93;2.10;;;6.20;99.90;;;;;;5096526;28;20043;-73
2022/03/27 05:11:28;;;;;;;9.05;2.00;;;6.10;99.90;;;;;;5094530;28;20503;-74
2022/03/27 05:13:55;;;;;;;6.07;1.85;;;6.00;99.90;;;;;;5096703;28;20399;-74
2022/03/27 05:16:21;;;;;;;5.47;1.70;;;6.20;99.90;;;;;;5096273;28;20096;-74
2022/03/27 05:18:48;;;;;;;6.68;2.13;;;6.20;99.90;;;;;;5078571;28;20083;-74
2022/03/27 05:21:14;;;;;;;10.05;1.73;;;6.20;99.90;;;;;;5096160;28;20052;-74
2022/03/27 05:23:40;;;;;;;4.68;1.52;;;6.90;99.90;;;;;;5095273;28;20054;-74
2022/03/27 05:26:06;;;;;;;6.57;1.73;;;6.10;99.90;;;;;;5096221;28;20059;-74
2022/03/27 05:28:32;;;;;;;8.50;2.28;;;6.30;99.90;;;;;;5095423;28;20044;-74
2022/03/27 05:30:58;;;;;;;9.82;2.67;;;6.10;99.90;;;;;;5096056;28;20059;-74
2022/03/27 05:33:23;;;;;;;10.50;2.10;;;6.00;99.90;;;;;;5094691;28;20040;-75
2022/03/27 05:35:49;;;;;;;8.15;2.13;;;6.20;99.90;;;;;;5096052;28;20040;-75
2022/03/27 05:38:16;;;;;;;7.95;2.00;;;6.10;99.90;;;;;;5094521;28;20476;-74
2022/03/27 05:40:42;;;;;;;11.13;2.33;;;6.20;99.90;;;;;;5094431;28;20052;-74
2022/03/27 05:43:07;;;;;;;7.97;2.45;;;6.00;99.90;;;;;;5094814;28;20048;-74
2022/03/27 05:45:35;;;;;;;9.95;2.42;;;6.30;99.90;;;;;;5095806;28;20048;-75
2022/03/27 05:48:03;;;;;;;10.15;2.47;;;6.50;99.90;;;;;;5094547;28;20051;-74
2022/03/27 05:50:28;;;;;;;8.57;2.55;;;6.20;99.90;;;;;;5094702;28;20052;-74
2022/03/27 05:52:54;;;;;;;10.80;2.25;;;6.20;99.90;;;;;;5096405;28;20040;-75
2022/03/27 05:55:21;;;;;;;10.80;2.67;;;6.10;99.90;;;;;;5095615;28;20255;-75
2022/03/27 05:57:47;;;;;;;9.73;2.20;;;6.30;99.90;;;;;;5077524;28;20124;-74
2022/03/27 06:00:16;;;;;;;8.27;2.20;;;6.00;99.90;;;;;;5095548;28;20060;-75
2022/03/27 06:02:43;;;;;;;13.80;2.85;;;6.00;99.90;;;;;;5095472;28;20055;-74
2022/03/27 06:05:09;;;;;;;9.65;2.80;;;6.50;99.90;;;;;;5095584;28;20123;-75
2022/03/27 06:07:49;;;;;;;9.77;2.20;;;6.50;99.90;;;;;;5094506;28;20178;-74
2022/03/27 06:10:18;;;;;;;11.93;2.83;;;6.10;99.90;;;;;;5095343;28;20442;-75
2022/03/27 06:12:45;;;;;;;8.23;2.15;;;6.30;99.90;;;;;;5095782;28;20375;-74
2022/03/27 06:15:12;;;;;;;15.77;2.78;;;6.00;99.90;;;;;;5095288;28;20052;-74
2022/03/27 06:17:44;;;;;;;11.27;3.38;;;6.20;99.90;;;;;;5095801;28;20048;-74
2022/03/27 06:20:12;;;;;;;10.05;2.72;;;6.10;99.90;;;;;;5077365;28;20048;-75
2022/03/27 06:22:39;;;;;;;8.73;2.90;;;6.00;99.90;;;;;;5094223;28;20044;-75
2022/03/27 06:25:06;;;;;;;10.98;3.40;;;6.40;99.90;;;;;;5094004;28;20505;-74
2022/03/27 06:27:32;;;;;;;18.13;3.83;;;6.00;99.90;;;;;;5095043;28;20197;-74
2022/03/27 06:29:58;;;;;;;13.60;3.67;;;6.30;99.90;;;;;;5095591;28;20089;-75
2022/03/27 06:32:26;;;;;;;16.85;4.15;;;6.30;99.90;;;;;;5094832;28;20036;-74
2022/03/27 06:34:56;;;;;;;16.27;4.45;;;6.30;99.90;;;;;;5077516;28;20056;-74
2022/03/27 06:37:22;;;;;;;15.68;4.43;;;6.50;99.90;;;;;;5094785;28;20052;-75
2022/03/27 06:39:48;;;;;;;15.35;3.65;;;7.00;99.90;;;;;;5077734;28;20052;-74
2022/03/27 06:42:14;;;;;;;19.40;3.85;;;6.70;99.90;;;;;;5077003;28;20130;-75
2022/03/27 06:44:40;;;;;;;19.48;4.68;;;6.50;99.90;;;;;;5094771;28;20040;-75
2022/03/27 06:47:07;;;;;;;17.77;4.05;;;6.40;99.90;;;;;;5076736;28;20495;-75
2022/03/27 06:49:33;;;;;;;19.02;3.38;;;6.50;99.90;;;;;;5094464;28;20122;-74
2022/03/27 06:51:59;;;;;;;17.77;3.60;;;6.80;99.90;;;;;;5094309;28;20548;-75
2022/03/27 06:54:24;;;;;;;18.70;3.60;;;6.80;99.90;;;;;;5094396;28;20054;-75
2022/03/27 06:56:50;;;;;;;15.50;3.47;;;6.70;99.90;;;;;;5094383;28;20088;-74
2022/03/27 06:59:16;;;;;;;22.13;3.78;;;6.70;99.90;;;;;;5094320;28;20059;-75
2022/03/27 07:04:25;;;;;;;14.65;3.75;;;7.00;99.90;;;;;;5092811;28;20109;-73
2022/03/27 07:06:51;;;;;;;19.15;3.95;;;6.90;99.90;;;;;;5093546;28;20472;-73
2022/03/27 07:09:18;;;;;;;21.17;4.28;;;6.80;99.90;;;;;;5093390;28;20122;-73
2022/03/27 07:11:46;;;;;;;12.90;3.28;;;7.10;99.90;;;;;;5092547;28;20079;-74
2022/03/27 07:14:12;;;;;;;19.27;3.97;;;6.90;99.90;;;;;;5093193;28;20550;-73
2022/03/27 07:16:39;;;;;;;18.73;4.35;;;7.00;99.90;;;;;;5093012;28;20171;-74
2022/03/27 07:19:05;;;;;;;19.30;4.32;;;7.10;99.90;;;;;;5093565;28;20083;-73
2022/03/27 07:21:30;;;;;;;17.20;4.53;;;7.50;99.90;;;;;;5094209;28;20036;-74
2022/03/27 07:23:58;;;;;;;23.15;4.57;;;7.60;99.90;;;;;;5093513;28;20050;-74
2022/03/27 07:26:24;;;;;;;16.90;4.20;;;7.50;99.90;;;;;;5093590;28;20044;-73
2022/03/27 07:28:50;;;;;;;24.13;4.40;;;7.40;99.90;;;;;;5093289;28;20044;-73
2022/03/27 07:31:16;;;;;;;21.10;4.90;;;7.50;99.90;;;;;;5092453;28;20092;-74
2022/03/27 07:33:42;;;;;;;26.48;4.97;;;7.50;99.90;;;;;;5074771;28;20472;-74
2022/03/27 07:36:08;;;;;;;24.55;5.07;;;7.40;99.90;;;;;;5093600;28;20476;-74
2022/03/27 07:38:34;;;;;;;25.15;5.57;;;7.50;99.90;;;;;;5092152;28;20052;-73
2022/03/27 07:41:00;;;;;;;25.02;5.05;;;7.40;99.90;;;;;;5092131;28;20048;-72
2022/03/27 07:43:27;;;;;;;20.73;4.50;;;7.60;99.90;;;;;;5093232;28;20043;-73
2022/03/27 07:45:53;;;;;;;25.35;4.50;;;7.60;99.90;;;;;;5093091;28;20496;-73
2022/03/27 07:48:18;;;;;;;23.75;5.22;;;8.00;99.90;;;;;;5093298;28;20054;-73
2022/03/27 07:50:46;;;;;;;23.65;6.28;;;7.90;99.90;;;;;;5093279;28;20044;-74
2022/03/27 07:53:12;;;;;;;24.58;5.53;;;8.10;99.90;;;;;;5092785;28;20044;-74
2022/03/27 07:55:38;;;;;;;19.10;5.47;;;7.80;99.90;;;;;;5091894;28;20051;-74
2022/03/27 07:58:04;;;;;;;24.13;4.60;;;7.90;99.90;;;;;;5092827;28;20048;-73
2022/03/27 08:00:30;;;;;;;20.95;5.90;;;8.30;99.90;;;;;;5091640;28;20048;-73
2022/03/27 08:02:57;;;;;;;21.92;4.85;;;8.10;99.90;;;;;;5092421;28;20040;-73
2022/03/27 08:05:24;;;;;;;25.23;5.15;;;8.20;99.90;;;;;;5091719;28;20479;-73
2022/03/27 08:07:50;;;;;;;22.73;5.65;;;8.10;99.90;;;;;;5093125;28;20040;-73
2022/03/27 08:10:16;;;;;;;21.27;4.68;;;8.10;99.90;;;;;;5074857;28;20467;-73
2022/03/27 08:12:43;;;;;;;27.08;6.05;;;8.40;99.90;;;;;;5091596;28;20096;-73
2022/03/27 08:15:09;;;;;;;26.23;6.00;;;8.30;99.90;;;;;;5092974;28;20043;-73
2022/03/27 08:17:36;;;;;;;19.33;4.75;;;8.30;99.90;;;;;;5093080;28;20093;-73
2022/03/27 08:20:03;;;;;;;19.50;5.10;;;8.60;99.90;;;;;;5092033;28;20040;-73
2022/03/27 08:22:28;;;;;;;21.23;4.38;;;8.40;99.90;;;;;;5092312;28;20409;-73
2022/03/27 08:24:54;;;;;;;20.73;4.95;;;8.40;99.90;;;;;;5092839;28;20123;-71
2022/03/27 08:27:20;;;;;;;23.67;5.28;;;8.40;99.90;;;;;;5093368;28;20417;-74
2022/03/27 08:29:46;;;;;;;22.58;5.10;;;8.40;99.90;;;;;;5093145;28;20036;-74
2022/03/27 08:32:14;;;;;;;19.65;4.35;;;8.70;99.90;;;;;;5091686;28;20544;-73
2022/03/27 08:34:43;;;;;;;22.00;4.75;;;8.60;99.90;;;;;;5091690;28;20048;-73
2022/03/27 08:37:10;;;;;;;27.15;4.93;;;8.60;99.90;;;;;;5092624;28;20089;-72
2022/03/27 08:39:38;;;;;;;22.17;5.32;;;8.80;99.90;;;;;;5092587;28;20055;-71
2022/03/27 08:42:05;;;;;;;23.80;5.35;;;8.80;99.90;;;;;;5093057;28;20039;-73
2022/03/27 08:44:34;;;;;;;20.60;4.85;;;8.50;99.90;;;;;;5092918;28;20137;-73
2022/03/27 08:47:02;;;;;;;21.13;4.45;;;8.50;99.90;;;;;;5095833;28;20464;-73
2022/03/27 08:49:29;;;;;;;21.48;4.90;;;8.50;99.90;;;;;;5095053;28;20050;-72
2022/03/27 08:52:02;;;;;;;18.27;4.47;;;8.40;99.90;;;;;;5094976;28;20044;-73
2022/03/27 08:54:42;;;;;;;20.55;4.32;;;8.50;99.90;;;;;;5096145;28;20048;-73
2022/03/27 08:57:24;;;;;;;23.10;5.45;;;8.50;99.90;;;;;;5094559;28;20460;-74
2022/03/27 08:59:55;;;;;;;19.05;4.90;;;8.60;99.90;;;;;;5095144;28;20102;-73
2022/03/27 09:02:24;;;;;;;28.90;4.68;;;8.60;99.90;;;;;;5095291;28;20036;-73
2022/03/27 09:04:55;;;;;;;24.45;4.35;;;8.70;99.90;;;;;;5095829;28;20048;-73
2022/03/27 09:07:30;;;;;;;19.80;4.85;;;9.00;99.90;;;;;;5095959;28;20047;-72
2022/03/27 09:10:00;;;;;;;22.92;4.75;;;8.70;99.90;;;;;;5095831;28;20123;-72
2022/03/27 09:12:26;;;;;;;17.60;5.07;;;9.00;99.90;;;;;;5095786;28;20043;-74
2022/03/27 09:14:52;;;;;;;26.13;5.53;;;8.70;99.90;;;;;;5095929;28;20106;-74
2022/03/27 09:17:18;;;;;;;21.27;4.28;;;8.90;99.90;;;;;;5096336;28;20044;-73
2022/03/27 09:19:51;;;;;;;13.95;4.22;;;8.90;99.90;;;;;;5094448;28;20444;-73
2022/03/27 09:22:23;;;;;;;22.13;4.68;;;9.00;99.90;;;;;;5094206;28;20076;-73
2022/03/27 09:25:00;;;;;;;23.80;5.15;;;9.00;99.90;;;;;;5095476;28;20048;-73
2022/03/27 09:27:36;;;;;;;21.90;5.03;;;9.00;99.90;;;;;;5093285;28;20055;-73
2022/03/27 09:30:09;;;;;;;19.92;4.35;;;9.00;99.90;;;;;;5095095;28;20060;-73
2022/03/27 09:32:40;;;;;;;21.92;4.60;;;9.00;99.90;;;;;;5095337;28;20126;-73
2022/03/27 09:35:11;;;;;;;18.42;4.85;;;9.10;99.90;;;;;;5095565;28;20047;-73
2022/03/27 09:37:39;;;;;;;25.50;5.25;;;9.10;99.90;;;;;;5094966;28;20044;-72
2022/03/27 09:40:08;;;;;;;19.55;4.72;;;9.20;99.90;;;;;;5093649;28;20043;-73
2022/03/27 09:42:36;;;;;;;18.27;4.82;;;9.20;99.90;;;;;;5093840;28;20040;-72
2022/03/27 09:45:18;;;;;;;22.38;4.97;;;9.20;99.90;;;;;;5094064;28;20305;-73
2022/03/27 09:47:46;;;;;;;19.52;4.65;;;9.30;99.90;;;;;;5093600;28;20051;-73
2022/03/27 09:50:32;;;;;;;23.40;5.65;;;9.30;99.90;;;;;;5095201;28;20051;-71
2022/03/27 09:53:17;;;;;;;20.02;4.30;;;9.30;99.90;;;;;;5094144;28;20093;-72
2022/03/27 09:55:42;;;;;;;16.75;4.15;;;9.40;99.90;;;;;;5094495;28;20466;-72
2022/03/27 09:58:09;;;;;;;18.42;4.18;;;9.70;99.90;;;;;;5094434;28;20087;-73
2022/03/27 10:00:35;;;;;;;16.58;4.20;;;9.50;99.90;;;;;;5094370;28;20048;-73
2022/03/27 10:03:12;;;;;;;15.20;3.95;;;9.70;99.90;;;;;;5094627;28;20464;-72
2022/03/27 10:05:38;;;;;;;17.38;4.50;;;9.70;99.90;;;;;;5094840;28;20044;-72
2022/03/27 10:08:04;;;;;;;14.40;4.07;;;9.90;99.90;;;;;;5094444;28;20117;-71
2022/03/27 10:10:30;;;;;;;21.30;4.72;;;9.70;99.90;;;;;;5093735;28;20039;-69
2022/03/27 10:12:58;;;;;;;15.10;4.18;;;9.70;99.90;;;;;;5094968;28;20062;-69
2022/03/27 10:15:29;;;;;;;19.17;4.45;;;9.80;99.90;;;;;;5096039;28;20131;-69
2022/03/27 10:18:13;;;;;;;15.98;4.43;;;9.80;99.90;;;;;;5094208;28;20047;-69
2022/03/27 10:20:40;;;;;;;20.25;4.05;;;9.80;99.90;;;;;;5096108;28;20431;-69
2022/03/27 10:23:13;;;;;;;15.27;4.15;;;9.80;99.90;;;;;;5094203;28;20384;-69
2022/03/27 10:25:50;;;;;;;17.83;4.50;;;9.90;99.90;;;;;;5095362;28;20487;-68
2022/03/27 10:28:19;;;;;;;18.13;5.40;;;10.00;99.90;;;;;;5096029;28;20048;-69
2022/03/27 10:30:46;;;;;;;17.15;4.30;;;10.00;99.90;;;;;;5096239;28;20430;-70
2022/03/27 10:33:13;;;;;;;17.73;4.20;;;10.20;99.90;;;;;;5094934;28;20397;-70
2022/03/27 10:35:54;;;;;;;18.27;4.55;;;10.20;99.90;;;;;;5076745;28;20044;-70
2022/03/27 10:38:31;;;;;;;17.23;3.88;;;10.30;99.90;;;;;;5094539;28;20044;-70
2022/03/27 10:41:15;;;;;;;13.32;3.50;;;10.30;99.90;;;;;;5094788;28;20108;-70
2022/03/27 10:44:02;;;;;;;17.25;4.30;;;10.30;99.90;;;;;;5094822;28;20075;-70
2022/03/27 10:46:29;;;;;;;18.10;4.03;;;10.50;99.90;;;;;;5094748;28;20048;-70
2022/03/27 10:49:18;;;;;;;14.63;3.85;;;10.50;99.90;;;;;;5094919;28;20471;-70
2022/03/27 10:51:46;;;;;;;17.88;3.50;;;10.50;99.90;;;;;;5094820;28;20132;-70
2022/03/27 10:54:18;;;;;;;19.17;4.15;;;10.80;99.90;;;;;;5094340;28;20048;-70
2022/03/27 10:56:52;;;;;;;20.55;4.47;;;10.60;99.90;;;;;;5093286;28;20475;-70
2022/03/27 10:59:19;;;;;;;21.25;4.10;;;10.90;99.90;;;;;;5076575;28;20059;-70
2022/03/27 11:01:59;;;;;;;20.52;4.07;;;10.70;99.90;;;;;;5094401;28;20044;-72
2022/03/27 11:04:44;;;;;;;23.50;5.35;;;10.80;99.90;;;;;;5094973;28;20048;-70
2022/03/27 11:07:15;;;;;;;15.50;4.90;;;10.90;99.90;;;;;;5094525;28;20048;-72
2022/03/27 11:09:44;;;;;;;19.88;4.10;;;10.90;99.90;;;;;;5094107;28;20083;-70
2022/03/27 11:12:22;;;;;;;19.38;4.25;;;11.00;99.90;;;;;;5094719;28;20044;-70
2022/03/27 11:14:55;;;;;;;19.10;3.58;;;11.10;99.90;;;;;;5094191;28;20044;-71
2022/03/27 11:17:40;;;;;;;20.13;4.05;;;11.10;99.90;;;;;;5094160;28;20384;-70
2022/03/27 11:20:25;;;;;;;15.82;3.83;;;11.20;99.90;;;;;;5094229;28;20039;-71
2022/03/27 11:22:59;;;;;;;17.55;4.95;;;11.30;99.90;;;;;;5094439;28;20040;-70
2022/03/27 11:25:45;;;;;;;14.27;3.35;;;11.30;99.90;;;;;;5094049;28;20122;-70
2022/03/27 11:28:13;;;;;;;17.98;3.85;;;11.30;99.90;;;;;;5094724;28;20044;-70
2022/03/27 11:30:40;;;;;;;19.42;4.25;;;11.60;99.90;;;;;;5093967;28;20055;-70
2022/03/27 11:33:15;;;;;;;16.40;3.70;;;11.30;99.90;;;;;;5093871;28;20075;-71
2022/03/27 11:35:42;;;;;;;17.63;4.20;;;11.50;99.90;;;;;;5094446;28;20048;-70
2022/03/27 11:38:25;;;;;;;14.20;4.22;;;11.40;99.90;;;;;;5094328;28;20086;-71
2022/03/27 11:40:51;;;;;;;24.17;4.30;;;11.40;99.90;;;;;;5092540;28;20047;-70
2022/03/27 11:43:34;;;;;;;14.77;4.03;;;11.60;99.90;;;;;;5094109;28;20047;-70
2022/03/27 11:46:02;;;;;;;17.77;3.53;;;11.40;99.90;;;;;;5093612;28;20465;-70
2022/03/27 11:48:28;;;;;;;16.63;4.07;;;11.50;99.90;;;;;;5093798;28;20048;-70
2022/03/27 11:50:55;;;;;;;20.15;3.80;;;11.60;99.90;;;;;;5092564;28;20040;-70
2022/03/27 11:53:34;;;;;;;14.68;3.83;;;11.80;99.90;;;;;;5093609;28;20040;-70
2022/03/27 11:56:08;;;;;;;16.48;4.28;;;11.80;99.90;;;;;;5093741;28;20044;-71
2022/03/27 11:58:35;;;;;;;19.08;5.18;;;11.80;99.90;;;;;;5093433;28;20060;-71
2022/03/27 12:01:06;;;;;;;15.45;3.90;;;11.70;99.90;;;;;;5093330;28;20190;-70
2022/03/27 12:03:32;;;;;;;14.52;3.25;;;11.80;99.90;;;;;;5093009;28;20036;-71
2022/03/27 12:06:08;;;;;;;14.13;3.05;;;11.90;99.90;;;;;;5092693;28;20048;-70
2022/03/27 12:08:39;;;;;;;18.40;4.10;;;11.90;99.90;;;;;;5092630;28;20087;-70
2022/03/27 12:11:07;;;;;;;19.20;3.50;;;11.90;99.90;;;;;;5092866;28;20101;-70
2022/03/27 12:13:43;;;;;;;11.13;3.28;;;12.00;99.90;;;;;;5091382;28;20044;-74
2022/03/27 12:16:15;;;;;;;13.68;3.22;;;12.00;99.90;;;;;;5092484;28;20048;-74
2022/03/27 12:18:44;;;;;;;14.73;3.10;;;12.00;99.90;;;;;;5092088;28;20051;-71
2022/03/27 12:21:13;;;;;;;14.85;3.25;;;12.10;99.90;;;;;;5095650;28;20052;-74
2022/03/27 12:23:42;;;;;;;16.30;3.17;;;12.10;99.90;;;;;;5096557;28;20489;-74
2022/03/27 12:32:02;;;;;;;20.83;3.90;;;12.30;99.90;;;;;;5096364;28;20480;-73
2022/03/27 12:34:28;;;;;;;12.25;3.30;;;12.30;99.90;;;;;;5096823;28;20067;-72
2022/03/27 12:37:19;;;;;;;13.90;3.65;;;12.40;99.90;;;;;;5096380;28;20040;-73
2022/03/27 12:39:47;;;;;;;19.75;3.95;;;12.40;99.90;;;;;;5095993;28;20044;-73
2022/03/27 12:42:28;;;;;;;18.05;3.72;;;12.50;99.90;;;;;;5096172;28;20506;-73
2022/03/27 12:44:54;;;;;;;17.02;3.47;;;12.50;99.90;;;;;;5096054;28;20055;-72
2022/03/27 12:47:31;;;;;;;17.35;3.33;;;12.50;99.90;;;;;;5096587;28;20048;-73
2022/03/27 12:49:57;;;;;;;9.52;2.55;;;12.60;99.90;;;;;;5096590;28;20059;-73
2022/03/27 12:52:23;;;;;;;15.05;2.60;;;12.70;99.90;;;;;;5096347;28;20036;-72
2022/03/27 12:54:55;;;;;;;13.02;2.63;;;12.60;99.90;;;;;;5095372;28;20388;-73
2022/03/27 12:57:21;;;;;;;13.60;3.15;;;12.70;99.90;;;;;;5096370;28;20052;-73
2022/03/27 12:59:47;;;;;;;18.85;2.85;;;12.70;99.90;;;;;;5094558;28;20135;-74
2022/03/27 13:02:26;;;;;;;15.55;3.55;;;12.80;99.90;;;;;;5096212;28;20048;-74
2022/03/27 13:05:00;;;;;;;14.13;2.67;;;12.80;99.90;;;;;;5096010;28;20127;-73
2022/03/27 13:07:54;;;;;;;13.40;2.88;;;12.80;99.90;;;;;;5094942;28;20079;-74